sensor_id;sensor_type;location;lat;lon;timestamp;temperature;humidity
39849;DHT22;25518;47.878;15.914;2023-06-26T00:01:55;14.30;99.90
39849;DHT22;25518;47.878;15.914;2023-06-26T00:04:45;14.30;99.90
39849;DHT22;25518;47.878;15.914;2023-06-26T00:07:35;14.30;99.90
39849;DHT22;25518;47.878;15.914;2023-06-26T00:10:26;14.30;99.90
39849;DHT22;25518;47.878;15.914;2023-06-26T00:13:16;14.20;99.90
39849;DHT22;25518;47.878;15.914;2023-06-26T00:16:05;14.10;99.90
39849;DHT22;25518;47.878;15.914;2023-06-26T00:18:55;14.00;99.90
39849;DHT22;25518;47.878;15.914;2023-06-26T00:21:45;14.00;99.90
39849;DHT22;25518;47.878;15.914;2023-06-26T00:24:37;13.90;99.90
39849;DHT22;25518;47.878;15.914;2023-06-26T00:27:26;14.00;99.90
39849;DHT22;25518;47.878;15.914;2023-06-26T00:30:16;14.00;99.90
39849;DHT22;25518;47.878;15.914;2023-06-26T00:33:06;13.90;99.90
39849;DHT22;25518;47.878;15.914;2023-06-26T00:35:55;13.80;99.90
39849;DHT22;25518;47.878;15.914;2023-06-26T00:38:45;13.90;99.90
39849;DHT22;25518;47.878;15.914;2023-06-26T00:41:37;13.40;99.90
39849;DHT22;25518;47.878;15.914;2023-06-26T00:44:26;13.70;99.90
39849;DHT22;25518;47.878;15.914;2023-06-26T00:47:16;11.10;99.90
39849;DHT22;25518;47.878;15.914;2023-06-26T00:50:06;13.70;99.90
39849;DHT22;25518;47.878;15.914;2023-06-26T00:52:57;13.70;99.90
39849;DHT22;25518;47.878;15.914;2023-06-26T00:55:49;13.50;99.90
39849;DHT22;25518;47.878;15.914;2023-06-26T00:58:39;13.70;99.90
39849;DHT22;25518;47.878;15.914;2023-06-26T01:01:28;13.40;99.90
39849;DHT22;25518;47.878;15.914;2023-06-26T01:04:18;13.50;99.90
39849;DHT22;25518;47.878;15.914;2023-06-26T01:07:08;13.60;99.90
39849;DHT22;25518;47.878;15.914;2023-06-26T01:09:58;13.60;99.90
39849;DHT22;25518;47.878;15.914;2023-06-26T01:12:48;13.70;99.90
39849;DHT22;25518;47.878;15.914;2023-06-26T01:15:40;13.60;99.90
39849;DHT22;25518;47.878;15.914;2023-06-26T01:18:30;13.60;99.90
39849;DHT22;25518;47.878;15.914;2023-06-26T01:21:20;13.50;99.90
39849;DHT22;25518;47.878;15.914;2023-06-26T01:24:16;13.40;99.90
39849;DHT22;25518;47.878;15.914;2023-06-26T01:27:11;13.40;99.90
39849;DHT22;25518;47.878;15.914;2023-06-26T01:30:03;13.50;99.90
39849;DHT22;25518;47.878;15.914;2023-06-26T01:32:54;13.50;99.90
39849;DHT22;25518;47.878;15.914;2023-06-26T01:35:44;13.50;99.90
39849;DHT22;25518;47.878;15.914;2023-06-26T01:38:34;13.50;99.90
39849;DHT22;25518;47.878;15.914;2023-06-26T01:41:24;13.40;99.90
39849;DHT22;25518;47.878;15.914;2023-06-26T01:44:34;13.20;99.90
39849;DHT22;25518;47.878;15.914;2023-06-26T01:47:26;13.20;99.90
39849;DHT22;25518;47.878;15.914;2023-06-26T01:50:22;13.20;99.90
39849;DHT22;25518;47.878;15.914;2023-06-26T01:53:17;13.20;99.90
39849;DHT22;25518;47.878;15.914;2023-06-26T01:56:14;13.30;99.90
39849;DHT22;25518;47.878;15.914;2023-06-26T01:59:06;13.10;99.90
39849;DHT22;25518;47.878;15.914;2023-06-26T02:01:56;13.10;99.90
39849;DHT22;25518;47.878;15.914;2023-06-26T02:04:46;12.90;99.90
39849;DHT22;25518;47.878;15.914;2023-06-26T02:07:37;13.00;99.90
39849;DHT22;25518;47.878;15.914;2023-06-26T02:10:26;12.90;99.90
39849;DHT22;25518;47.878;15.914;2023-06-26T02:13:16;12.90;99.90
39849;DHT22;25518;47.878;15.914;2023-06-26T02:16:05;12.90;99.90
39849;DHT22;25518;47.878;15.914;2023-06-26T02:18:55;12.90;99.90
39849;DHT22;25518;47.878;15.914;2023-06-26T02:21:48;12.80;99.90
39849;DHT22;25518;47.878;15.914;2023-06-26T02:24:38;12.90;99.90
39849;DHT22;25518;47.878;15.914;2023-06-26T02:27:28;12.90;99.90
39849;DHT22;25518;47.878;15.914;2023-06-26T02:30:17;12.80;99.90
39849;DHT22;25518;47.878;15.914;2023-06-26T02:33:07;12.40;99.90
39849;DHT22;25518;47.878;15.914;2023-06-26T02:35:56;12.70;99.90
39849;DHT22;25518;47.878;15.914;2023-06-26T02:38:46;12.70;99.90
39849;DHT22;25518;47.878;15.914;2023-06-26T02:41:36;12.70;99.90
39849;DHT22;25518;47.878;15.914;2023-06-26T02:44:25;12.70;99.90
39849;DHT22;25518;47.878;15.914;2023-06-26T02:47:15;12.70;99.90
39849;DHT22;25518;47.878;15.914;2023-06-26T02:50:06;12.80;99.90
39849;DHT22;25518;47.878;15.914;2023-06-26T02:52:56;12.80;99.90
39849;DHT22;25518;47.878;15.914;2023-06-26T02:55:45;12.90;99.90
39849;DHT22;25518;47.878;15.914;2023-06-26T02:58:36;12.90;99.90
39849;DHT22;25518;47.878;15.914;2023-06-26T03:18:21;12.70;99.90
39849;DHT22;25518;47.878;15.914;2023-06-26T03:21:10;11.60;99.90
39849;DHT22;25518;47.878;15.914;2023-06-26T03:24:00;12.90;99.90
39849;DHT22;25518;47.878;15.914;2023-06-26T03:26:50;12.70;99.90
39849;DHT22;25518;47.878;15.914;2023-06-26T03:29:40;12.70;99.90
39849;DHT22;25518;47.878;15.914;2023-06-26T03:32:30;12.80;99.90
39849;DHT22;25518;47.878;15.914;2023-06-26T03:35:19;12.70;99.90
39849;DHT22;25518;47.878;15.914;2023-06-26T03:38:10;12.60;99.90
39849;DHT22;25518;47.878;15.914;2023-06-26T03:40:59;12.70;99.90
39849;DHT22;25518;47.878;15.914;2023-06-26T03:43:49;12.80;99.90
39849;DHT22;25518;47.878;15.914;2023-06-26T03:46:39;12.60;99.90
39849;DHT22;25518;47.878;15.914;2023-06-26T03:49:28;12.60;99.90
39849;DHT22;25518;47.878;15.914;2023-06-26T03:52:17;12.60;99.90
39849;DHT22;25518;47.878;15.914;2023-06-26T03:55:08;12.70;99.90
39849;DHT22;25518;47.878;15.914;2023-06-26T03:57:57;12.80;99.90
39849;DHT22;25518;47.878;15.914;2023-06-26T04:00:47;12.80;99.90
39849;DHT22;25518;47.878;15.914;2023-06-26T04:03:37;12.80;99.90
39849;DHT22;25518;47.878;15.914;2023-06-26T04:06:26;12.30;99.90
39849;DHT22;25518;47.878;15.914;2023-06-26T04:09:16;12.90;99.90
39849;DHT22;25518;47.878;15.914;2023-06-26T04:12:06;12.90;99.90
39849;DHT22;25518;47.878;15.914;2023-06-26T04:14:56;12.90;99.90
39849;DHT22;25518;47.878;15.914;2023-06-26T04:17:46;12.90;99.90
39849;DHT22;25518;47.878;15.914;2023-06-26T04:20:41;13.00;99.90
39849;DHT22;25518;47.878;15.914;2023-06-26T04:23:31;11.90;99.90
39849;DHT22;25518;47.878;15.914;2023-06-26T04:26:20;13.00;99.90
39849;DHT22;25518;47.878;15.914;2023-06-26T04:29:10;13.00;99.90
39849;DHT22;25518;47.878;15.914;2023-06-26T04:32:00;13.10;99.90
39849;DHT22;25518;47.878;15.914;2023-06-26T04:34:50;13.20;99.90
39849;DHT22;25518;47.878;15.914;2023-06-26T04:37:39;13.30;99.90
39849;DHT22;25518;47.878;15.914;2023-06-26T04:40:29;13.20;99.90
39849;DHT22;25518;47.878;15.914;2023-06-26T04:43:18;13.10;99.90
39849;DHT22;25518;47.878;15.914;2023-06-26T04:46:08;13.20;99.90
39849;DHT22;25518;47.878;15.914;2023-06-26T04:48:58;13.30;99.90
39849;DHT22;25518;47.878;15.914;2023-06-26T04:51:47;13.20;99.90
39849;DHT22;25518;47.878;15.914;2023-06-26T04:54:37;13.10;99.90
39849;DHT22;25518;47.878;15.914;2023-06-26T04:57:27;13.30;99.90
39849;DHT22;25518;47.878;15.914;2023-06-26T05:00:17;13.30;99.90
39849;DHT22;25518;47.878;15.914;2023-06-26T05:03:06;13.50;99.90
39849;DHT22;25518;47.878;15.914;2023-06-26T05:05:56;13.30;99.90
39849;DHT22;25518;47.878;15.914;2023-06-26T05:08:46;11.80;99.90
39849;DHT22;25518;47.878;15.914;2023-06-26T05:11:35;10.90;99.90
39849;DHT22;25518;47.878;15.914;2023-06-26T05:14:25;13.60;99.90
39849;DHT22;25518;47.878;15.914;2023-06-26T05:17:15;13.70;99.90
39849;DHT22;25518;47.878;15.914;2023-06-26T05:20:06;13.70;99.90
39849;DHT22;25518;47.878;15.914;2023-06-26T05:22:56;13.70;99.90
39849;DHT22;25518;47.878;15.914;2023-06-26T05:25:47;13.70;99.90
39849;DHT22;25518;47.878;15.914;2023-06-26T05:28:37;13.90;99.90
39849;DHT22;25518;47.878;15.914;2023-06-26T05:31:27;14.10;99.90
39849;DHT22;25518;47.878;15.914;2023-06-26T05:34:19;14.10;99.90
39849;DHT22;25518;47.878;15.914;2023-06-26T05:37:11;14.10;99.90
39849;DHT22;25518;47.878;15.914;2023-06-26T05:40:03;14.10;99.90
39849;DHT22;25518;47.878;15.914;2023-06-26T05:42:54;14.20;99.90
39849;DHT22;25518;47.878;15.914;2023-06-26T05:45:44;14.40;99.90
39849;DHT22;25518;47.878;15.914;2023-06-26T05:48:34;14.40;99.90
39849;DHT22;25518;47.878;15.914;2023-06-26T05:51:23;14.50;99.90
39849;DHT22;25518;47.878;15.914;2023-06-26T05:54:13;14.60;99.90
39849;DHT22;25518;47.878;15.914;2023-06-26T05:57:03;14.70;99.90
39849;DHT22;25518;47.878;15.914;2023-06-26T05:59:54;14.70;99.90
39849;DHT22;25518;47.878;15.914;2023-06-26T06:02:45;14.80;99.90
39849;DHT22;25518;47.878;15.914;2023-06-26T06:05:34;14.90;99.90
39849;DHT22;25518;47.878;15.914;2023-06-26T06:08:24;14.90;99.90
39849;DHT22;25518;47.878;15.914;2023-06-26T06:11:14;15.00;99.90
39849;DHT22;25518;47.878;15.914;2023-06-26T06:14:05;15.10;99.90
39849;DHT22;25518;47.878;15.914;2023-06-26T06:16:54;15.20;99.90
39849;DHT22;25518;47.878;15.914;2023-06-26T06:19:45;15.30;99.90
39849;DHT22;25518;47.878;15.914;2023-06-26T06:22:34;15.40;99.90
39849;DHT22;25518;47.878;15.914;2023-06-26T06:25:24;15.50;99.90
39849;DHT22;25518;47.878;15.914;2023-06-26T06:28:13;15.60;99.90
39849;DHT22;25518;47.878;15.914;2023-06-26T06:31:06;15.80;99.90
39849;DHT22;25518;47.878;15.914;2023-06-26T06:33:56;16.00;99.90
39849;DHT22;25518;47.878;15.914;2023-06-26T06:36:46;16.10;99.90
39849;DHT22;25518;47.878;15.914;2023-06-26T06:39:35;16.10;99.90
39849;DHT22;25518;47.878;15.914;2023-06-26T06:42:25;14.40;99.90
39849;DHT22;25518;47.878;15.914;2023-06-26T06:45:15;16.50;99.90
39849;DHT22;25518;47.878;15.914;2023-06-26T06:48:05;16.60;99.90
39849;DHT22;25518;47.878;15.914;2023-06-26T06:50:55;16.70;99.90
39849;DHT22;25518;47.878;15.914;2023-06-26T06:53:45;16.80;99.90
39849;DHT22;25518;47.878;15.914;2023-06-26T06:56:35;16.90;99.90
39849;DHT22;25518;47.878;15.914;2023-06-26T06:59:24;17.10;99.90
39849;DHT22;25518;47.878;15.914;2023-06-26T07:02:15;17.30;99.90
39849;DHT22;25518;47.878;15.914;2023-06-26T07:05:06;17.50;99.90
39849;DHT22;25518;47.878;15.914;2023-06-26T07:07:56;17.60;99.90
39849;DHT22;25518;47.878;15.914;2023-06-26T07:10:45;17.80;99.90
39849;DHT22;25518;47.878;15.914;2023-06-26T07:13:35;18.00;99.90
39849;DHT22;25518;47.878;15.914;2023-06-26T07:16:25;18.10;99.90
39849;DHT22;25518;47.878;15.914;2023-06-26T07:19:15;18.30;99.90
39849;DHT22;25518;47.878;15.914;2023-06-26T07:22:04;18.50;99.90
39849;DHT22;25518;47.878;15.914;2023-06-26T07:24:54;18.80;99.90
39849;DHT22;25518;47.878;15.914;2023-06-26T07:27:43;18.80;99.90
39849;DHT22;25518;47.878;15.914;2023-06-26T07:30:34;18.90;99.90
39849;DHT22;25518;47.878;15.914;2023-06-26T07:33:23;19.20;99.90
39849;DHT22;25518;47.878;15.914;2023-06-26T07:36:13;19.40;99.90
39849;DHT22;25518;47.878;15.914;2023-06-26T07:39:02;19.60;99.90
39849;DHT22;25518;47.878;15.914;2023-06-26T07:41:52;19.90;99.90
39849;DHT22;25518;47.878;15.914;2023-06-26T07:44:43;19.90;99.90
39849;DHT22;25518;47.878;15.914;2023-06-26T07:47:32;19.90;99.90
39849;DHT22;25518;47.878;15.914;2023-06-26T07:50:22;19.90;99.90
39849;DHT22;25518;47.878;15.914;2023-06-26T07:53:11;20.30;99.90
39849;DHT22;25518;47.878;15.914;2023-06-26T07:56:01;20.70;99.90
39849;DHT22;25518;47.878;15.914;2023-06-26T07:58:51;21.00;99.90
39849;DHT22;25518;47.878;15.914;2023-06-26T08:01:42;21.10;99.90
39849;DHT22;25518;47.878;15.914;2023-06-26T08:04:32;20.70;99.90
39849;DHT22;25518;47.878;15.914;2023-06-26T08:07:23;20.80;99.90
39849;DHT22;25518;47.878;15.914;2023-06-26T08:10:12;21.00;99.90
39849;DHT22;25518;47.878;15.914;2023-06-26T08:13:02;21.20;99.90
39849;DHT22;25518;47.878;15.914;2023-06-26T08:15:52;21.10;99.90
39849;DHT22;25518;47.878;15.914;2023-06-26T08:18:41;20.90;99.90
39849;DHT22;25518;47.878;15.914;2023-06-26T08:21:31;21.00;99.90
39849;DHT22;25518;47.878;15.914;2023-06-26T08:24:20;20.90;99.90
39849;DHT22;25518;47.878;15.914;2023-06-26T08:27:11;21.20;99.90
39849;DHT22;25518;47.878;15.914;2023-06-26T08:30:01;21.40;99.90
39849;DHT22;25518;47.878;15.914;2023-06-26T08:32:50;21.10;99.90
39849;DHT22;25518;47.878;15.914;2023-06-26T08:35:40;21.10;99.90
39849;DHT22;25518;47.878;15.914;2023-06-26T08:38:31;21.00;99.90
39849;DHT22;25518;47.878;15.914;2023-06-26T08:41:22;20.70;99.90
39849;DHT22;25518;47.878;15.914;2023-06-26T08:44:12;17.90;99.90
39849;DHT22;25518;47.878;15.914;2023-06-26T08:47:01;21.20;99.90
39849;DHT22;25518;47.878;15.914;2023-06-26T08:49:59;20.50;99.90
39849;DHT22;25518;47.878;15.914;2023-06-26T08:55:46;20.90;99.90
39849;DHT22;25518;47.878;15.914;2023-06-26T08:58:38;20.90;99.90
39849;DHT22;25518;47.878;15.914;2023-06-26T09:01:28;21.30;99.90
39849;DHT22;25518;47.878;15.914;2023-06-26T09:04:18;22.00;99.90
39849;DHT22;25518;47.878;15.914;2023-06-26T09:07:07;22.40;99.90
39849;DHT22;25518;47.878;15.914;2023-06-26T09:09:57;22.10;99.90
39849;DHT22;25518;47.878;15.914;2023-06-26T09:12:48;22.20;99.90
39849;DHT22;25518;47.878;15.914;2023-06-26T09:15:38;22.60;99.90
39849;DHT22;25518;47.878;15.914;2023-06-26T09:18:32;22.60;99.90
39849;DHT22;25518;47.878;15.914;2023-06-26T09:21:21;23.30;99.90
39849;DHT22;25518;47.878;15.914;2023-06-26T09:24:13;23.80;99.90
39849;DHT22;25518;47.878;15.914;2023-06-26T09:27:04;23.60;99.90
39849;DHT22;25518;47.878;15.914;2023-06-26T09:29:53;23.50;99.90
39849;DHT22;25518;47.878;15.914;2023-06-26T09:32:43;23.70;99.90
39849;DHT22;25518;47.878;15.914;2023-06-26T09:35:33;23.30;99.90
39849;DHT22;25518;47.878;15.914;2023-06-26T09:38:23;23.00;99.90
39849;DHT22;25518;47.878;15.914;2023-06-26T09:41:16;23.10;99.90
39849;DHT22;25518;47.878;15.914;2023-06-26T09:44:11;23.70;99.90
39849;DHT22;25518;47.878;15.914;2023-06-26T09:47:02;23.80;99.90
39849;DHT22;25518;47.878;15.914;2023-06-26T09:49:53;23.70;99.90
39849;DHT22;25518;47.878;15.914;2023-06-26T09:52:44;23.30;99.90
39849;DHT22;25518;47.878;15.914;2023-06-26T09:55:35;23.20;99.90
39849;DHT22;25518;47.878;15.914;2023-06-26T09:58:27;23.00;99.90
39849;DHT22;25518;47.878;15.914;2023-06-26T10:01:18;20.90;99.90
39849;DHT22;25518;47.878;15.914;2023-06-26T10:04:08;22.20;99.90
39849;DHT22;25518;47.878;15.914;2023-06-26T10:07:00;20.70;99.90
39849;DHT22;25518;47.878;15.914;2023-06-26T10:09:51;23.50;99.90
39849;DHT22;25518;47.878;15.914;2023-06-26T10:12:45;23.60;99.90
39849;DHT22;25518;47.878;15.914;2023-06-26T10:15:38;23.50;99.90
39849;DHT22;25518;47.878;15.914;2023-06-26T10:18:31;23.40;99.90
39849;DHT22;25518;47.878;15.914;2023-06-26T10:21:24;23.70;99.90
39849;DHT22;25518;47.878;15.914;2023-06-26T10:24:15;23.60;99.90
39849;DHT22;25518;47.878;15.914;2023-06-26T10:27:24;23.60;99.90
39849;DHT22;25518;47.878;15.914;2023-06-26T10:30:19;23.90;99.90
39849;DHT22;25518;47.878;15.914;2023-06-26T10:33:12;24.40;99.90
39849;DHT22;25518;47.878;15.914;2023-06-26T10:36:19;24.90;99.90
39849;DHT22;25518;47.878;15.914;2023-06-26T10:39:10;25.20;99.90
39849;DHT22;25518;47.878;15.914;2023-06-26T10:42:08;25.70;99.90
39849;DHT22;25518;47.878;15.914;2023-06-26T10:45:09;26.00;99.90
39849;DHT22;25518;47.878;15.914;2023-06-26T10:48:00;26.30;99.90
39849;DHT22;25518;47.878;15.914;2023-06-26T10:50:50;25.80;99.90
39849;DHT22;25518;47.878;15.914;2023-06-26T10:53:40;25.60;99.90
39849;DHT22;25518;47.878;15.914;2023-06-26T10:59:34;25.50;99.90
39849;DHT22;25518;47.878;15.914;2023-06-26T11:02:26;26.00;99.90
39849;DHT22;25518;47.878;15.914;2023-06-26T11:05:33;25.70;99.90
39849;DHT22;25518;47.878;15.914;2023-06-26T11:14:45;24.90;99.90
39849;DHT22;25518;47.878;15.914;2023-06-26T11:17:36;25.10;99.90
39849;DHT22;25518;47.878;15.914;2023-06-26T11:20:27;24.70;99.90
39849;DHT22;25518;47.878;15.914;2023-06-26T11:23:22;24.70;99.90
39849;DHT22;25518;47.878;15.914;2023-06-26T11:26:14;24.70;99.90
39849;DHT22;25518;47.878;15.914;2023-06-26T11:29:05;24.60;99.90
39849;DHT22;25518;47.878;15.914;2023-06-26T11:32:00;24.40;99.90
39849;DHT22;25518;47.878;15.914;2023-06-26T11:34:51;24.30;99.90
39849;DHT22;25518;47.878;15.914;2023-06-26T11:37:40;24.80;99.90
39849;DHT22;25518;47.878;15.914;2023-06-26T11:40:35;25.10;99.90
39849;DHT22;25518;47.878;15.914;2023-06-26T11:43:24;25.30;99.90
39849;DHT22;25518;47.878;15.914;2023-06-26T11:46:18;25.60;99.90
39849;DHT22;25518;47.878;15.914;2023-06-26T11:49:08;25.30;99.90
39849;DHT22;25518;47.878;15.914;2023-06-26T11:51:58;24.90;99.90
39849;DHT22;25518;47.878;15.914;2023-06-26T11:54:48;24.60;99.90
39849;DHT22;25518;47.878;15.914;2023-06-26T11:57:38;24.90;99.90
39849;DHT22;25518;47.878;15.914;2023-06-26T12:00:28;25.40;99.90
39849;DHT22;25518;47.878;15.914;2023-06-26T12:03:20;25.50;99.90
39849;DHT22;25518;47.878;15.914;2023-06-26T12:06:10;26.00;99.90
39849;DHT22;25518;47.878;15.914;2023-06-26T12:09:01;26.30;99.90
39849;DHT22;25518;47.878;15.914;2023-06-26T12:11:55;26.10;99.90
39849;DHT22;25518;47.878;15.914;2023-06-26T12:14:46;26.00;99.90
39849;DHT22;25518;47.878;15.914;2023-06-26T12:17:38;26.20;99.90
39849;DHT22;25518;47.878;15.914;2023-06-26T12:20:28;26.20;99.90
39849;DHT22;25518;47.878;15.914;2023-06-26T12:23:21;26.30;99.90
39849;DHT22;25518;47.878;15.914;2023-06-26T12:26:18;26.30;99.90
39849;DHT22;25518;47.878;15.914;2023-06-26T12:29:11;25.20;99.90
39849;DHT22;25518;47.878;15.914;2023-06-26T12:32:02;26.10;99.90
39849;DHT22;25518;47.878;15.914;2023-06-26T12:34:52;25.80;99.90
39849;DHT22;25518;47.878;15.914;2023-06-26T12:37:42;25.50;99.90
39849;DHT22;25518;47.878;15.914;2023-06-26T12:40:33;25.30;99.90
39849;DHT22;25518;47.878;15.914;2023-06-26T12:43:23;24.90;99.90
39849;DHT22;25518;47.878;15.914;2023-06-26T12:46:13;25.00;99.90
39849;DHT22;25518;47.878;15.914;2023-06-26T12:49:03;25.30;99.90
39849;DHT22;25518;47.878;15.914;2023-06-26T12:51:53;25.60;99.90
39849;DHT22;25518;47.878;15.914;2023-06-26T12:54:43;25.80;99.90
39849;DHT22;25518;47.878;15.914;2023-06-26T12:57:33;25.90;99.90
39849;DHT22;25518;47.878;15.914;2023-06-26T13:00:22;26.00;99.90
39849;DHT22;25518;47.878;15.914;2023-06-26T13:03:13;26.20;99.90
39849;DHT22;25518;47.878;15.914;2023-06-26T13:06:02;26.20;99.90
39849;DHT22;25518;47.878;15.914;2023-06-26T13:08:52;26.30;99.90
39849;DHT22;25518;47.878;15.914;2023-06-26T13:11:42;26.60;99.90
39849;DHT22;25518;47.878;15.914;2023-06-26T13:14:32;26.50;99.90
39849;DHT22;25518;47.878;15.914;2023-06-26T13:17:22;26.20;99.90
39849;DHT22;25518;47.878;15.914;2023-06-26T13:20:12;25.10;99.90
39849;DHT22;25518;47.878;15.914;2023-06-26T13:23:03;26.00;99.90
39849;DHT22;25518;47.878;15.914;2023-06-26T13:25:53;26.40;99.90
39849;DHT22;25518;47.878;15.914;2023-06-26T13:28:43;26.80;99.90
39849;DHT22;25518;47.878;15.914;2023-06-26T13:31:33;27.00;99.90
39849;DHT22;25518;47.878;15.914;2023-06-26T13:34:23;27.10;99.90
39849;DHT22;25518;47.878;15.914;2023-06-26T13:37:13;27.20;99.90
39849;DHT22;25518;47.878;15.914;2023-06-26T13:40:03;25.00;99.90
39849;DHT22;25518;47.878;15.914;2023-06-26T13:42:56;26.70;99.90
39849;DHT22;25518;47.878;15.914;2023-06-26T13:45:45;26.60;99.90
39849;DHT22;25518;47.878;15.914;2023-06-26T13:48:35;26.70;99.90
39849;DHT22;25518;47.878;15.914;2023-06-26T13:51:24;26.70;99.90
39849;DHT22;25518;47.878;15.914;2023-06-26T13:54:14;26.70;99.90
39849;DHT22;25518;47.878;15.914;2023-06-26T13:57:04;26.70;99.90
39849;DHT22;25518;47.878;15.914;2023-06-26T13:59:54;26.70;99.90
39849;DHT22;25518;47.878;15.914;2023-06-26T14:02:44;26.70;99.90
39849;DHT22;25518;47.878;15.914;2023-06-26T14:05:34;26.70;99.30
39849;DHT22;25518;47.878;15.914;2023-06-26T14:08:23;26.70;99.90
39849;DHT22;25518;47.878;15.914;2023-06-26T14:11:13;26.80;99.90
39849;DHT22;25518;47.878;15.914;2023-06-26T14:14:05;26.80;99.90
39849;DHT22;25518;47.878;15.914;2023-06-26T14:16:55;27.20;99.80
39849;DHT22;25518;47.878;15.914;2023-06-26T14:19:44;27.30;99.90
39849;DHT22;25518;47.878;15.914;2023-06-26T14:22:35;27.40;99.00
39849;DHT22;25518;47.878;15.914;2023-06-26T14:25:25;27.20;99.90
39849;DHT22;25518;47.878;15.914;2023-06-26T14:28:17;27.40;98.60
39849;DHT22;25518;47.878;15.914;2023-06-26T14:31:07;27.30;97.80
39849;DHT22;25518;47.878;15.914;2023-06-26T14:33:56;27.10;98.60
39849;DHT22;25518;47.878;15.914;2023-06-26T14:36:48;27.00;99.30
39849;DHT22;25518;47.878;15.914;2023-06-26T14:39:37;27.00;99.00
39849;DHT22;25518;47.878;15.914;2023-06-26T14:42:27;27.10;99.90
39849;DHT22;25518;47.878;15.914;2023-06-26T14:45:17;27.10;97.90
39849;DHT22;25518;47.878;15.914;2023-06-26T14:48:07;27.30;98.50
39849;DHT22;25518;47.878;15.914;2023-06-26T14:50:57;27.00;98.60
39849;DHT22;25518;47.878;15.914;2023-06-26T14:53:46;26.90;99.40
39849;DHT22;25518;47.878;15.914;2023-06-26T14:56:37;27.10;99.10
39849;DHT22;25518;47.878;15.914;2023-06-26T14:59:26;27.00;98.30
39849;DHT22;25518;47.878;15.914;2023-06-26T15:02:16;26.30;99.40
39849;DHT22;25518;47.878;15.914;2023-06-26T15:05:06;27.20;99.10
39849;DHT22;25518;47.878;15.914;2023-06-26T15:07:56;27.10;99.30
39849;DHT22;25518;47.878;15.914;2023-06-26T15:10:46;27.00;99.10
39849;DHT22;25518;47.878;15.914;2023-06-26T15:13:35;26.90;98.50
39849;DHT22;25518;47.878;15.914;2023-06-26T15:16:25;27.10;98.70
39849;DHT22;25518;47.878;15.914;2023-06-26T15:19:14;27.20;99.10
39849;DHT22;25518;47.878;15.914;2023-06-26T15:22:04;27.10;98.40
39849;DHT22;25518;47.878;15.914;2023-06-26T15:24:54;27.00;99.90
39849;DHT22;25518;47.878;15.914;2023-06-26T15:27:43;26.70;98.10
39849;DHT22;25518;47.878;15.914;2023-06-26T15:30:33;26.40;99.90
39849;DHT22;25518;47.878;15.914;2023-06-26T15:33:22;26.60;99.90
39849;DHT22;25518;47.878;15.914;2023-06-26T15:36:12;26.60;99.00
39849;DHT22;25518;47.878;15.914;2023-06-26T15:39:01;26.70;99.90
39849;DHT22;25518;47.878;15.914;2023-06-26T15:41:51;26.70;99.90
39849;DHT22;25518;47.878;15.914;2023-06-26T15:44:41;26.70;99.90
39849;DHT22;25518;47.878;15.914;2023-06-26T15:47:31;26.30;99.90
39849;DHT22;25518;47.878;15.914;2023-06-26T15:50:20;26.50;99.90
39849;DHT22;25518;47.878;15.914;2023-06-26T15:53:15;26.80;99.20
39849;DHT22;25518;47.878;15.914;2023-06-26T15:56:10;27.00;99.70
39849;DHT22;25518;47.878;15.914;2023-06-26T15:59:00;27.10;99.40
39849;DHT22;25518;47.878;15.914;2023-06-26T16:01:49;27.10;98.50
39849;DHT22;25518;47.878;15.914;2023-06-26T16:04:40;27.30;99.70
39849;DHT22;25518;47.878;15.914;2023-06-26T16:07:30;26.50;98.20
39849;DHT22;25518;47.878;15.914;2023-06-26T16:10:19;27.30;97.90
39849;DHT22;25518;47.878;15.914;2023-06-26T16:13:09;27.50;98.30
39849;DHT22;25518;47.878;15.914;2023-06-26T16:15:59;27.60;99.90
39849;DHT22;25518;47.878;15.914;2023-06-26T16:18:49;27.80;96.90
39849;DHT22;25518;47.878;15.914;2023-06-26T16:21:39;27.70;95.30
39849;DHT22;25518;47.878;15.914;2023-06-26T16:24:29;28.00;95.80
39849;DHT22;25518;47.878;15.914;2023-06-26T16:27:18;27.70;97.30
39849;DHT22;25518;47.878;15.914;2023-06-26T16:30:08;27.70;97.10
39849;DHT22;25518;47.878;15.914;2023-06-26T16:32:58;25.60;97.70
39849;DHT22;25518;47.878;15.914;2023-06-26T16:35:48;27.30;97.30
39849;DHT22;25518;47.878;15.914;2023-06-26T16:38:38;27.40;97.70
39849;DHT22;25518;47.878;15.914;2023-06-26T16:41:30;27.40;98.50
39849;DHT22;25518;47.878;15.914;2023-06-26T16:44:20;27.20;97.40
39849;DHT22;25518;47.878;15.914;2023-06-26T16:47:10;27.00;98.30
39849;DHT22;25518;47.878;15.914;2023-06-26T16:50:00;27.00;99.70
39849;DHT22;25518;47.878;15.914;2023-06-26T16:52:49;27.00;97.90
39849;DHT22;25518;47.878;15.914;2023-06-26T16:55:39;27.10;97.30
39849;DHT22;25518;47.878;15.914;2023-06-26T16:58:29;27.30;97.10
39849;DHT22;25518;47.878;15.914;2023-06-26T17:01:18;27.50;97.50
39849;DHT22;25518;47.878;15.914;2023-06-26T17:04:08;27.80;98.20
39849;DHT22;25518;47.878;15.914;2023-06-26T17:06:58;28.00;96.50
39849;DHT22;25518;47.878;15.914;2023-06-26T17:09:48;29.30;97.40
39849;DHT22;25518;47.878;15.914;2023-06-26T17:12:38;30.10;96.60
39849;DHT22;25518;47.878;15.914;2023-06-26T17:15:28;30.30;94.10
39849;DHT22;25518;47.878;15.914;2023-06-26T17:18:18;31.50;95.40
39849;DHT22;25518;47.878;15.914;2023-06-26T17:21:08;32.10;95.20
39849;DHT22;25518;47.878;15.914;2023-06-26T17:23:57;33.20;93.80
39849;DHT22;25518;47.878;15.914;2023-06-26T17:26:47;33.20;93.20
39849;DHT22;25518;47.878;15.914;2023-06-26T17:29:38;33.00;92.30
39849;DHT22;25518;47.878;15.914;2023-06-26T17:32:28;33.70;93.00
39849;DHT22;25518;47.878;15.914;2023-06-26T17:35:18;34.20;92.10
39849;DHT22;25518;47.878;15.914;2023-06-26T17:38:07;33.00;91.50
39849;DHT22;25518;47.878;15.914;2023-06-26T17:40:57;29.90;93.50
39849;DHT22;25518;47.878;15.914;2023-06-26T17:43:46;28.70;95.90
39849;DHT22;25518;47.878;15.914;2023-06-26T17:46:36;27.60;96.40
39849;DHT22;25518;47.878;15.914;2023-06-26T17:49:26;26.30;97.60
39849;DHT22;25518;47.878;15.914;2023-06-26T17:52:16;26.20;98.40
39849;DHT22;25518;47.878;15.914;2023-06-26T17:55:06;25.60;99.90
39849;DHT22;25518;47.878;15.914;2023-06-26T17:57:56;25.10;99.90
39849;DHT22;25518;47.878;15.914;2023-06-26T18:00:46;24.20;99.90
39849;DHT22;25518;47.878;15.914;2023-06-26T18:03:35;23.90;99.90
39849;DHT22;25518;47.878;15.914;2023-06-26T18:06:25;23.80;99.90
39849;DHT22;25518;47.878;15.914;2023-06-26T18:09:15;23.80;99.90